Time;durP1;ratioP1;P1;durP2;ratioP2;P2;SDS_P1;SDS_P2;PMS_P1;PMS_P2;Temp;Humidity;BMP_temperature;BMP_pressure;BME280_temperature;BME280_humidity;BME280_pressure;Samples;Min_cycle;Max_cycle;Signal;HPM_P1;HPM_P2
2023/07/26 05:23:48;;;;;;;4.97;1.92;;;;;;;;;;4929602;29;20111;-83
2023/07/26 05:26:14;;;;;;;4.70;2.20;;;;;;;;;;4915898;29;20465;-83
2023/07/26 05:28:40;;;;;;;5.75;2.65;;;;;;;;;;4920421;29;20163;-83
2023/07/26 05:31:06;;;;;;;8.93;4.25;;;;;;;;;;4931219;29;20039;-83
2023/07/26 05:33:34;;;;;;;7.55;4.80;;;;;;;;;;4912023;29;20040;-83
2023/07/26 05:36:00;;;;;;;8.15;4.80;;;;;;;;;;4909825;29;20676;-83
2023/07/26 05:38:26;;;;;;;8.60;3.35;;;;;;;;;;4911639;29;20051;-83
2023/07/26 05:40:52;;;;;;;5.05;2.40;;;;;;;;;;4922517;29;20119;-83
2023/07/26 05:43:19;;;;;;;4.55;1.95;;;;;;;;;;4932375;29;20048;-83
2023/07/26 05:45:45;;;;;;;5.00;1.98;;;;;;;;;;4932431;29;20075;-83
2023/07/26 05:48:11;;;;;;;4.20;2.38;;;;;;;;;;4932731;29;20040;-82
2023/07/26 05:50:37;;;;;;;5.07;2.97;;;;;;;;;;4909328;29;20035;-80
2023/07/26 05:53:03;;;;;;;4.72;2.58;;;;;;;;;;4929929;29;20114;-82
2023/07/26 05:55:29;;;;;;;5.20;1.65;;;;;;;;;;4928328;29;20053;-81
2023/07/26 05:57:55;;;;;;;5.93;1.92;;;;;;;;;;4926004;29;20047;-81
2023/07/26 06:00:21;;;;;;;5.32;2.67;;;;;;;;;;4931585;29;20441;-81
2023/07/26 06:02:47;;;;;;;5.32;3.58;;;;;;;;;;4933345;29;20044;-81
2023/07/26 06:05:13;;;;;;;8.18;3.08;;;;;;;;;;4928514;29;20111;-82
2023/07/26 06:07:39;;;;;;;5.75;2.05;;;;;;;;;;4933133;29;20115;-81
2023/07/26 06:10:06;;;;;;;6.13;1.42;;;;;;;;;;4929180;29;20107;-81
2023/07/26 06:12:32;;;;;;;2.75;1.30;;;;;;;;;;4932178;29;20044;-81
2023/07/26 06:14:58;;;;;;;5.05;1.60;;;;;;;;;;4929587;29;20048;-81
2023/07/26 06:17:24;;;;;;;2.60;1.05;;;;;;;;;;4931876;29;20067;-81
2023/07/26 06:19:50;;;;;;;2.53;0.90;;;;;;;;;;4931481;29;20039;-81
2023/07/26 06:22:16;;;;;;;2.00;0.90;;;;;;;;;;4912225;29;20052;-81
2023/07/26 06:24:42;;;;;;;8.38;1.23;;;;;;;;;;4913425;29;20040;-81
2023/07/26 06:27:08;;;;;;;4.57;1.33;;;;;;;;;;4928284;29;20066;-80
2023/07/26 06:29:35;;;;;;;6.68;1.30;;;;;;;;;;4931721;29;20044;-80
2023/07/26 06:32:01;;;;;;;2.70;0.90;;;;;;;;;;4918127;29;20054;-81
2023/07/26 06:34:27;;;;;;;3.97;1.00;;;;;;;;;;4930695;29;20071;-81
2023/07/26 06:36:53;;;;;;;3.95;1.10;;;;;;;;;;4905890;29;20135;-81
2023/07/26 06:39:19;;;;;;;3.35;1.13;;;;;;;;;;4910849;29;20494;-81
2023/07/26 06:41:45;;;;;;;3.08;0.98;;;;;;;;;;4929761;29;20099;-81
2023/07/26 06:44:11;;;;;;;4.28;0.93;;;;;;;;;;4931589;29;20126;-81
2023/07/26 06:46:38;;;;;;;4.28;1.00;;;;;;;;;;4914732;29;20051;-81
2023/07/26 06:49:05;;;;;;;4.88;1.05;;;;;;;;;;4912911;29;20184;-81
2023/07/26 06:51:31;;;;;;;2.50;0.93;;;;;;;;;;4927595;29;20077;-81
2023/07/26 06:53:56;;;;;;;2.63;1.00;;;;;;;;;;4926181;29;20516;-81
2023/07/26 06:56:22;;;;;;;3.05;0.90;;;;;;;;;;4922087;29;20043;-81
2023/07/26 06:58:48;;;;;;;1.67;0.70;;;;;;;;;;4914266;29;20217;-80
2023/07/26 07:01:18;;;;;;;3.00;0.68;;;;;;;;;;4932422;29;20070;-81
2023/07/26 07:03:44;;;;;;;3.65;1.35;;;;;;;;;;4924864;29;20036;-81
2023/07/26 07:06:10;;;;;;;3.40;0.95;;;;;;;;;;4926980;29;20534;-81
2023/07/26 07:08:37;;;;;;;7.80;1.30;;;;;;;;;;4929429;29;20050;-81
2023/07/26 07:11:03;;;;;;;2.38;1.25;;;;;;;;;;4927516;29;20110;-81
2023/07/26 07:13:29;;;;;;;4.68;1.50;;;;;;;;;;4914243;29;20051;-81
2023/07/26 07:15:55;;;;;;;5.10;1.88;;;;;;;;;;4927797;29;20080;-81
2023/07/26 07:18:21;;;;;;;2.75;1.05;;;;;;;;;;4934889;29;20044;-81
2023/07/26 07:20:54;;;;;;;2.67;1.10;;;;;;;;;;4932915;29;20044;-81
2023/07/26 07:23:21;;;;;;;4.28;1.50;;;;;;;;;;4935054;29;20054;-81
2023/07/26 07:25:47;;;;;;;5.13;1.15;;;;;;;;;;4915472;29;20036;-81
2023/07/26 07:28:13;;;;;;;5.43;2.20;;;;;;;;;;4927566;29;20555;-81
2023/07/26 07:30:39;;;;;;;4.78;2.33;;;;;;;;;;4934117;29;20384;-81
2023/07/26 07:33:05;;;;;;;8.90;2.42;;;;;;;;;;4934931;29;20051;-81
2023/07/26 07:35:31;;;;;;;6.15;1.88;;;;;;;;;;4915245;29;20407;-81
2023/07/26 07:37:57;;;;;;;2.00;1.20;;;;;;;;;;4934963;29;20513;-81
2023/07/26 07:40:23;;;;;;;5.45;1.98;;;;;;;;;;4914825;29;20139;-81
2023/07/26 07:42:49;;;;;;;4.45;1.10;;;;;;;;;;4910873;29;20524;-81
2023/07/26 07:45:15;;;;;;;4.10;1.92;;;;;;;;;;4930052;29;20593;-81
2023/07/26 07:47:41;;;;;;;4.05;1.10;;;;;;;;;;4927772;29;20043;-81
2023/07/26 07:50:07;;;;;;;2.78;1.10;;;;;;;;;;4927408;29;20483;-81
2023/07/26 07:52:33;;;;;;;3.05;1.02;;;;;;;;;;4933060;29;20127;-80
2023/07/26 07:54:59;;;;;;;3.33;1.40;;;;;;;;;;4914192;29;20135;-80
2023/07/26 07:57:25;;;;;;;2.53;0.98;;;;;;;;;;4926165;29;20050;-81
2023/07/26 07:59:51;;;;;;;5.97;1.02;;;;;;;;;;4931929;29;20090;-81
2023/07/26 08:02:17;;;;;;;2.78;1.00;;;;;;;;;;4913253;29;20597;-81
2023/07/26 08:04:43;;;;;;;4.75;1.25;;;;;;;;;;4933946;29;20091;-81
2023/07/26 08:07:09;;;;;;;4.55;1.17;;;;;;;;;;4914480;29;20829;-81
2023/07/26 08:09:35;;;;;;;3.95;0.80;;;;;;;;;;4934190;29;20079;-80
2023/07/26 08:12:02;;;;;;;5.35;1.20;;;;;;;;;;4927310;29;20425;-81
2023/07/26 08:14:28;;;;;;;3.15;0.93;;;;;;;;;;4933476;29;20050;-81
2023/07/26 08:16:54;;;;;;;3.97;0.90;;;;;;;;;;4906530;29;20127;-81
2023/07/26 08:19:20;;;;;;;3.97;0.80;;;;;;;;;;4916719;29;20387;-81
2023/07/26 08:21:46;;;;;;;4.78;1.10;;;;;;;;;;4930484;29;20052;-81
2023/07/26 08:24:12;;;;;;;5.05;0.90;;;;;;;;;;4906451;29;20067;-81
2023/07/26 08:26:38;;;;;;;1.92;0.80;;;;;;;;;;4923027;29;20039;-81
2023/07/26 08:29:04;;;;;;;3.08;0.57;;;;;;;;;;4933408;29;20051;-81
2023/07/26 08:31:30;;;;;;;2.97;1.33;;;;;;;;;;4912745;29;20071;-81
2023/07/26 08:33:56;;;;;;;4.40;0.80;;;;;;;;;;4916419;29;20066;-81
2023/07/26 08:36:22;;;;;;;2.33;0.90;;;;;;;;;;4933093;29;20042;-81
2023/07/26 08:38:48;;;;;;;3.22;1.05;;;;;;;;;;4922341;29;20052;-81
2023/07/26 08:41:14;;;;;;;6.32;1.60;;;;;;;;;;4914948;29;20086;-80
2023/07/26 08:43:40;;;;;;;3.00;0.80;;;;;;;;;;4910224;29;20127;-81
2023/07/26 08:46:07;;;;;;;4.95;1.10;;;;;;;;;;4914424;29;20044;-81
2023/07/26 08:48:33;;;;;;;2.60;0.80;;;;;;;;;;4906685;29;20511;-81
2023/07/26 08:51:00;;;;;;;7.03;1.08;;;;;;;;;;4932322;29;20048;-81
2023/07/26 08:53:27;;;;;;;10.63;1.83;;;;;;;;;;4928446;29;20626;-81
2023/07/26 08:55:53;;;;;;;2.28;0.70;;;;;;;;;;4923056;29;20507;-81
2023/07/26 08:58:19;;;;;;;6.47;0.90;;;;;;;;;;4903179;29;20052;-81
2023/07/26 09:00:46;;;;;;;6.45;0.70;;;;;;;;;;4931586;29;20048;-81
2023/07/26 09:03:13;;;;;;;3.28;0.77;;;;;;;;;;4931347;29;20043;-81
2023/07/26 09:05:39;;;;;;;5.97;1.10;;;;;;;;;;4932741;29;20043;-81
2023/07/26 09:08:05;;;;;;;3.92;0.85;;;;;;;;;;4911259;29;20047;-81
2023/07/26 09:10:31;;;;;;;2.47;0.60;;;;;;;;;;4931525;29;20110;-81
2023/07/26 09:13:10;;;;;;;4.95;0.85;;;;;;;;;;4920993;29;20048;-81
2023/07/26 09:15:41;;;;;;;2.72;0.80;;;;;;;;;;4908878;29;20048;-81
2023/07/26 09:18:08;;;;;;;4.65;0.93;;;;;;;;;;4930062;29;20298;-82
2023/07/26 09:20:35;;;;;;;2.28;0.57;;;;;;;;;;4914829;29;20047;-82
2023/07/26 09:23:11;;;;;;;4.43;0.70;;;;;;;;;;4924565;29;20062;-81
2023/07/26 09:25:39;;;;;;;3.17;0.88;;;;;;;;;;4915119;29;20039;-81
2023/07/26 09:28:08;;;;;;;4.38;0.70;;;;;;;;;;4927534;29;20824;-81
2023/07/26 09:30:36;;;;;;;2.10;0.60;;;;;;;;;;4909304;29;20475;-81
2023/07/26 09:33:02;;;;;;;4.22;0.60;;;;;;;;;;4930571;29;20050;-81
2023/07/26 09:35:31;;;;;;;3.90;0.60;;;;;;;;;;4932210;29;20043;-80
2023/07/26 09:37:57;;;;;;;2.97;0.57;;;;;;;;;;4911248;29;20047;-81
2023/07/26 09:40:33;;;;;;;5.82;0.98;;;;;;;;;;4927400;29;20047;-80
2023/07/26 09:42:59;;;;;;;3.15;0.70;;;;;;;;;;4928038;29;20511;-80
2023/07/26 09:45:25;;;;;;;2.97;0.80;;;;;;;;;;4925315;29;20040;-80
2023/07/26 09:47:51;;;;;;;3.63;0.98;;;;;;;;;;4927672;29;20399;-80
2023/07/26 09:50:28;;;;;;;2.55;0.70;;;;;;;;;;4908914;29;20032;-80
2023/07/26 09:52:54;;;;;;;4.25;0.82;;;;;;;;;;4924007;29;20052;-81
2023/07/26 09:55:25;;;;;;;3.35;0.88;;;;;;;;;;4912073;29;20040;-80
2023/07/26 09:57:57;;;;;;;5.35;1.02;;;;;;;;;;4909964;29;20052;-80
2023/07/26 10:00:24;;;;;;;4.57;0.80;;;;;;;;;;4928523;29;20044;-80
2023/07/26 10:03:03;;;;;;;2.63;0.80;;;;;;;;;;4925440;29;20043;-80
2023/07/26 10:05:33;;;;;;;2.65;0.88;;;;;;;;;;4920512;29;20032;-81
2023/07/26 10:08:00;;;;;;;1.55;0.47;;;;;;;;;;4901620;29;20139;-81
2023/07/26 10:10:27;;;;;;;3.72;0.60;;;;;;;;;;4914361;29;20036;-80
2023/07/26 10:12:57;;;;;;;3.67;0.93;;;;;;;;;;4929382;29;20134;-81
2023/07/26 10:15:25;;;;;;;3.67;0.60;;;;;;;;;;4920564;29;20067;-80
2023/07/26 10:17:52;;;;;;;2.05;0.80;;;;;;;;;;4929844;29;20500;-80
2023/07/26 10:20:18;;;;;;;2.85;0.77;;;;;;;;;;4929125;29;20127;-80
2023/07/26 10:22:45;;;;;;;4.50;0.80;;;;;;;;;;4905284;29;20154;-80
2023/07/26 10:25:11;;;;;;;3.92;0.60;;;;;;;;;;4932040;29;20047;-80
2023/07/26 10:27:40;;;;;;;7.50;0.80;;;;;;;;;;4928891;29;20058;-80
2023/07/26 10:30:06;;;;;;;4.90;0.98;;;;;;;;;;4931985;29;20122;-81
2023/07/26 10:32:33;;;;;;;5.50;0.60;;;;;;;;;;4930468;29;20052;-80
2023/07/26 10:34:59;;;;;;;4.68;0.70;;;;;;;;;;4914773;29;20044;-80
2023/07/26 10:37:33;;;;;;;4.50;0.70;;;;;;;;;;4939880;29;20066;-80
2023/07/26 10:39:59;;;;;;;3.63;0.80;;;;;;;;;;4930777;29;20784;-80
2023/07/26 10:42:26;;;;;;;4.28;0.80;;;;;;;;;;4928418;29;20823;-80
2023/07/26 10:44:56;;;;;;;3.65;1.00;;;;;;;;;;4931259;29;20042;-80
2023/07/26 10:47:22;;;;;;;3.08;0.80;;;;;;;;;;4928713;29;20127;-80
2023/07/26 10:49:48;;;;;;;2.92;0.80;;;;;;;;;;4930810;29;20119;-80
2023/07/26 10:52:15;;;;;;;3.47;0.60;;;;;;;;;;4932542;29;20043;-81
2023/07/26 10:54:45;;;;;;;5.90;0.70;;;;;;;;;;4934465;29;20152;-80
2023/07/26 10:57:15;;;;;;;3.17;0.40;;;;;;;;;;4926799;29;20048;-80
2023/07/26 10:59:58;;;;;;;3.17;0.93;;;;;;;;;;4918624;29;20040;-81
2023/07/26 11:02:44;;;;;;;2.90;0.80;;;;;;;;;;4922144;29;20044;-80
2023/07/26 11:05:15;;;;;;;2.97;0.90;;;;;;;;;;4916094;29;20044;-79
2023/07/26 11:07:55;;;;;;;4.97;0.75;;;;;;;;;;4914072;29;20082;-80
2023/07/26 11:10:31;;;;;;;3.13;0.70;;;;;;;;;;4908010;29;20403;-80
2023/07/26 11:13:16;;;;;;;3.53;1.10;;;;;;;;;;4923457;29;20071;-80
2023/07/26 11:15:44;;;;;;;3.35;0.80;;;;;;;;;;4925584;29;20044;-80
2023/07/26 11:18:11;;;;;;;4.10;0.70;;;;;;;;;;4933605;29;20044;-80
2023/07/26 11:20:38;;;;;;;2.05;0.60;;;;;;;;;;4917945;29;20035;-80
2023/07/26 11:23:14;;;;;;;2.63;0.70;;;;;;;;;;4930742;29;20439;-80
2023/07/26 11:25:40;;;;;;;2.20;0.77;;;;;;;;;;4934558;29;20075;-80
2023/07/26 11:28:06;;;;;;;4.00;0.73;;;;;;;;;;4934553;29;20071;-80
2023/07/26 11:30:32;;;;;;;3.60;0.80;;;;;;;;;;4930936;29;20115;-80
2023/07/26 11:32:58;;;;;;;4.78;1.05;;;;;;;;;;4926336;29;20047;-80
2023/07/26 11:35:24;;;;;;;3.38;0.60;;;;;;;;;;4930864;29;20039;-80
2023/07/26 11:37:54;;;;;;;5.32;0.70;;;;;;;;;;4934280;29;20052;-80
2023/07/26 11:40:20;;;;;;;3.22;0.70;;;;;;;;;;4921357;29;20119;-81
2023/07/26 11:42:46;;;;;;;2.65;0.60;;;;;;;;;;4934841;29;20118;-80
2023/07/26 11:45:13;;;;;;;3.45;0.70;;;;;;;;;;4933097;29;20061;-81
2023/07/26 11:47:39;;;;;;;3.25;0.55;;;;;;;;;;4908331;29;20123;-80
2023/07/26 11:50:05;;;;;;;1.33;0.50;;;;;;;;;;4925928;29;20048;-80
2023/07/26 11:52:32;;;;;;;3.95;0.73;;;;;;;;;;4932744;29;20055;-80
2023/07/26 11:54:59;;;;;;;2.15;0.50;;;;;;;;;;4910310;29;20674;-80
2023/07/26 11:57:28;;;;;;;2.35;0.57;;;;;;;;;;4931098;29;20049;-80
2023/07/26 12:00:04;;;;;;;3.10;1.10;;;;;;;;;;4917034;29;20042;-80
2023/07/26 12:02:31;;;;;;;2.20;0.57;;;;;;;;;;4932642;29;20044;-80
2023/07/26 12:05:15;;;;;;;2.50;0.47;;;;;;;;;;4933915;29;20039;-80
2023/07/26 12:07:49;;;;;;;3.13;0.70;;;;;;;;;;4926353;29;20530;-80
2023/07/26 12:10:16;;;;;;;1.90;0.70;;;;;;;;;;4925091;29;20040;-80
2023/07/26 12:12:43;;;;;;;4.53;1.02;;;;;;;;;;4916112;29;20090;-79
2023/07/26 12:15:09;;;;;;;2.70;0.68;;;;;;;;;;4918264;29;20040;-80
2023/07/26 12:17:35;;;;;;;1.55;0.50;;;;;;;;;;4914947;29;20768;-80
2023/07/26 12:20:03;;;;;;;3.17;0.70;;;;;;;;;;4930320;29;20051;-80
2023/07/26 12:22:29;;;;;;;1.30;0.50;;;;;;;;;;4932661;29;20058;-80
2023/07/26 12:24:55;;;;;;;1.75;0.60;;;;;;;;;;4915624;29;20067;-80
2023/07/26 12:27:21;;;;;;;3.42;0.60;;;;;;;;;;4933769;29;20046;-80
2023/07/26 12:29:47;;;;;;;3.20;0.55;;;;;;;;;;4917559;29;20039;-80
2023/07/26 12:32:17;;;;;;;2.85;0.65;;;;;;;;;;4933814;29;20122;-80
2023/07/26 12:34:43;;;;;;;7.38;0.85;;;;;;;;;;4932694;29;20399;-80
2023/07/26 12:37:09;;;;;;;5.00;0.80;;;;;;;;;;4933688;29;20062;-80
2023/07/26 12:39:38;;;;;;;3.17;0.40;;;;;;;;;;4930163;29;20163;-80
2023/07/26 12:42:05;;;;;;;5.45;0.63;;;;;;;;;;4933630;29;20808;-80
2023/07/26 12:44:31;;;;;;;2.47;0.60;;;;;;;;;;4930700;29;20028;-80
2023/07/26 12:46:59;;;;;;;2.67;0.65;;;;;;;;;;4933398;29;20869;-80
2023/07/26 12:49:25;;;;;;;1.35;0.60;;;;;;;;;;4911473;29;20404;-80
2023/07/26 12:51:51;;;;;;;3.60;0.70;;;;;;;;;;4929779;29;20078;-80
2023/07/26 12:54:18;;;;;;;1.42;0.40;;;;;;;;;;4932142;29;20391;-79
2023/07/26 12:56:44;;;;;;;3.03;0.55;;;;;;;;;;4933280;29;20055;-80
2023/07/26 12:59:10;;;;;;;2.55;0.90;;;;;;;;;;4932359;29;20035;-80
2023/07/26 13:01:37;;;;;;;2.45;0.63;;;;;;;;;;4924578;29;20070;-80
2023/07/26 13:04:03;;;;;;;2.10;0.88;;;;;;;;;;4932233;29;20031;-81
2023/07/26 13:06:29;;;;;;;2.10;0.60;;;;;;;;;;4930720;29;20506;-80
2023/07/26 13:08:55;;;;;;;2.65;0.60;;;;;;;;;;4933038;29;20032;-80
2023/07/26 13:11:21;;;;;;;1.55;0.60;;;;;;;;;;4932952;29;20031;-80
2023/07/26 13:13:47;;;;;;;2.00;0.60;;;;;;;;;;4931937;29;20032;-80
2023/07/26 13:16:13;;;;;;;2.03;0.65;;;;;;;;;;4912065;29;20044;-80
2023/07/26 13:18:39;;;;;;;3.35;0.90;;;;;;;;;;4920033;29;20066;-80
2023/07/26 13:21:05;;;;;;;2.67;0.60;;;;;;;;;;4932336;29;20036;-80
2023/07/26 13:23:31;;;;;;;2.95;0.90;;;;;;;;;;4924061;29;20062;-79
2023/07/26 13:25:57;;;;;;;2.70;0.70;;;;;;;;;;4907224;29;20534;-80
2023/07/26 13:28:23;;;;;;;1.70;0.55;;;;;;;;;;4908095;29;20044;-80
2023/07/26 13:30:49;;;;;;;2.90;0.75;;;;;;;;;;4931039;29;20043;-80
2023/07/26 13:33:15;;;;;;;4.38;0.73;;;;;;;;;;4937329;29;20044;-80
2023/07/26 13:35:41;;;;;;;2.15;0.70;;;;;;;;;;4929054;29;20040;-80
2023/07/26 13:38:07;;;;;;;2.47;0.50;;;;;;;;;;4933597;29;20147;-80
2023/07/26 13:40:33;;;;;;;2.35;0.80;;;;;;;;;;4913794;29;20063;-80
2023/07/26 13:43:00;;;;;;;1.27;0.43;;;;;;;;;;4932711;29;20095;-80
2023/07/26 13:45:26;;;;;;;2.22;0.68;;;;;;;;;;4930019;29;20107;-80
2023/07/26 13:47:52;;;;;;;2.35;0.70;;;;;;;;;;4933106;29;20051;-80
2023/07/26 13:50:18;;;;;;;2.35;0.80;;;;;;;;;;4913863;29;20035;-80
2023/07/26 13:52:44;;;;;;;4.03;0.80;;;;;;;;;;4936115;29;20081;-80
2023/07/26 13:55:10;;;;;;;2.15;0.52;;;;;;;;;;4914147;29;20063;-80
2023/07/26 13:57:36;;;;;;;1.25;0.57;;;;;;;;;;4929192;29;20047;-80
2023/07/26 14:00:03;;;;;;;3.63;1.00;;;;;;;;;;4914543;29;20047;-80
2023/07/26 14:02:29;;;;;;;1.50;0.60;;;;;;;;;;4935580;29;20040;-80
2023/07/26 14:04:55;;;;;;;5.45;1.50;;;;;;;;;;4926450;29;20063;-80
2023/07/26 14:07:21;;;;;;;3.58;0.80;;;;;;;;;;4931804;29;20036;-81
2023/07/26 14:09:47;;;;;;;2.40;0.80;;;;;;;;;;4926961;29;20036;-80
2023/07/26 14:12:15;;;;;;;1.92;0.82;;;;;;;;;;4914148;29;20087;-79
2023/07/26 14:14:41;;;;;;;2.88;1.00;;;;;;;;;;4920692;29;20054;-79
2023/07/26 14:17:07;;;;;;;3.97;1.42;;;;;;;;;;4941445;29;20419;-80
2023/07/26 14:19:33;;;;;;;5.57;1.10;;;;;;;;;;4913702;29;20052;-79
2023/07/26 14:22:01;;;;;;;2.80;0.88;;;;;;;;;;4922352;29;20733;-80
2023/07/26 14:24:27;;;;;;;2.33;0.80;;;;;;;;;;4927574;29;20066;-80
2023/07/26 14:26:54;;;;;;;3.63;1.00;;;;;;;;;;4905856;29;20048;-79
2023/07/26 14:29:20;;;;;;;3.33;0.95;;;;;;;;;;4918485;29;20046;-81
2023/07/26 14:31:46;;;;;;;1.83;0.68;;;;;;;;;;4913278;29;20044;-79
2023/07/26 14:34:12;;;;;;;3.92;1.00;;;;;;;;;;4933873;29;20706;-80
2023/07/26 14:36:38;;;;;;;5.25;0.90;;;;;;;;;;4917568;29;20074;-79
2023/07/26 14:39:05;;;;;;;4.00;0.80;;;;;;;;;;4915199;29;20480;-79
2023/07/26 14:41:31;;;;;;;1.45;0.65;;;;;;;;;;4927028;29;20427;-79
2023/07/26 14:43:57;;;;;;;2.55;0.70;;;;;;;;;;4927476;29;20035;-79
2023/07/26 14:46:23;;;;;;;3.92;0.80;;;;;;;;;;4930827;29;20064;-79
2023/07/26 14:48:49;;;;;;;3.05;0.70;;;;;;;;;;4933662;29;20058;-79
2023/07/26 14:51:15;;;;;;;2.35;1.08;;;;;;;;;;4934126;29;20770;-80
2023/07/26 14:53:41;;;;;;;2.95;1.02;;;;;;;;;;4935345;29;20039;-79
2023/07/26 14:56:07;;;;;;;2.80;1.10;;;;;;;;;;4929590;29;20080;-79
2023/07/26 14:58:33;;;;;;;2.35;0.98;;;;;;;;;;4940986;29;20059;-79
2023/07/26 15:00:59;;;;;;;3.15;0.88;;;;;;;;;;4941080;29;20121;-79
2023/07/26 15:03:25;;;;;;;4.70;0.70;;;;;;;;;;4935325;29;20048;-79
2023/07/26 15:05:51;;;;;;;2.58;0.93;;;;;;;;;;4931742;29;20067;-79
2023/07/26 15:08:17;;;;;;;3.20;0.95;;;;;;;;;;4925478;29;20039;-79
2023/07/26 15:10:43;;;;;;;2.67;0.70;;;;;;;;;;4936711;29;20115;-79
2023/07/26 15:13:09;;;;;;;2.45;0.85;;;;;;;;;;4927006;29;20047;-79
2023/07/26 15:15:35;;;;;;;3.58;0.80;;;;;;;;;;4926572;29;20514;-79
2023/07/26 15:18:01;;;;;;;3.55;0.93;;;;;;;;;;4925522;29;20152;-79
2023/07/26 15:20:27;;;;;;;5.78;1.02;;;;;;;;;;4929547;29;20481;-79
2023/07/26 15:22:53;;;;;;;8.52;1.27;;;;;;;;;;4934830;29;20565;-79
2023/07/26 15:25:20;;;;;;;5.38;0.73;;;;;;;;;;4925721;29;20039;-79
2023/07/26 15:27:46;;;;;;;2.65;0.98;;;;;;;;;;4930464;29;20051;-79
2023/07/26 15:30:12;;;;;;;2.40;0.90;;;;;;;;;;4929550;29;20039;-79
2023/07/26 15:32:38;;;;;;;4.05;1.05;;;;;;;;;;4918005;29;20439;-79
2023/07/26 15:35:04;;;;;;;3.70;0.93;;;;;;;;;;4929910;29;20044;-79
2023/07/26 15:37:30;;;;;;;3.05;1.05;;;;;;;;;;4927801;29;20140;-79
2023/07/26 15:39:56;;;;;;;3.90;1.10;;;;;;;;;;4931231;29;20511;-79
2023/07/26 15:42:23;;;;;;;3.88;0.98;;;;;;;;;;4935377;29;20043;-79
2023/07/26 15:44:49;;;;;;;6.00;1.05;;;;;;;;;;4929563;29;20032;-79
2023/07/26 15:47:15;;;;;;;3.53;1.00;;;;;;;;;;4934730;29;20544;-79
2023/07/26 15:49:41;;;;;;;2.00;0.68;;;;;;;;;;4934359;29;20127;-79
2023/07/26 15:52:07;;;;;;;2.05;1.00;;;;;;;;;;4932915;29;20039;-79
2023/07/26 15:54:34;;;;;;;2.33;0.90;;;;;;;;;;4934308;29;20079;-79
2023/07/26 15:57:00;;;;;;;2.28;0.90;;;;;;;;;;4928050;29;20044;-79
2023/07/26 15:59:26;;;;;;;2.85;1.20;;;;;;;;;;4925358;29;20054;-79
2023/07/26 16:01:52;;;;;;;4.60;0.85;;;;;;;;;;4929373;29;20495;-79
2023/07/26 16:04:19;;;;;;;2.90;1.10;;;;;;;;;;4916274;29;20115;-79
2023/07/26 16:06:45;;;;;;;3.65;1.20;;;;;;;;;;4933152;29;20514;-79
2023/07/26 16:09:11;;;;;;;2.63;1.23;;;;;;;;;;4930655;29;20040;-79
2023/07/26 16:11:37;;;;;;;3.70;1.40;;;;;;;;;;4935570;29;20044;-79
2023/07/26 16:14:03;;;;;;;2.35;0.80;;;;;;;;;;4934808;29;20175;-79
2023/07/26 16:16:30;;;;;;;2.75;1.08;;;;;;;;;;4931949;29;20131;-79
2023/07/26 16:18:55;;;;;;;2.35;0.80;;;;;;;;;;4927064;29;20046;-79
2023/07/26 16:21:22;;;;;;;3.95;1.20;;;;;;;;;;4916468;29;20036;-79
2023/07/26 16:23:48;;;;;;;6.38;0.98;;;;;;;;;;4936475;29;20799;-79
2023/07/26 16:26:15;;;;;;;3.20;1.20;;;;;;;;;;4929884;29;20558;-78
2023/07/26 16:28:42;;;;;;;2.58;0.93;;;;;;;;;;4931698;29;20712;-79
2023/07/26 16:31:09;;;;;;;3.83;1.40;;;;;;;;;;4916004;29;20040;-79
2023/07/26 16:33:35;;;;;;;3.75;1.00;;;;;;;;;;4930536;29;20062;-80
2023/07/26 16:36:01;;;;;;;2.90;1.00;;;;;;;;;;4930856;29;20052;-80
2023/07/26 16:38:27;;;;;;;3.72;0.98;;;;;;;;;;4913653;29;20044;-79
2023/07/26 16:40:53;;;;;;;4.40;1.20;;;;;;;;;;4933265;29;20062;-79
2023/07/26 16:43:19;;;;;;;4.05;1.20;;;;;;;;;;4929503;29;20052;-79
2023/07/26 16:45:45;;;;;;;2.95;0.80;;;;;;;;;;4931461;29;20044;-78
2023/07/26 16:48:11;;;;;;;3.47;0.90;;;;;;;;;;4928724;29;20066;-77
2023/07/26 16:50:37;;;;;;;2.58;1.00;;;;;;;;;;4920060;29;20467;-77
2023/07/26 16:53:03;;;;;;;2.83;0.90;;;;;;;;;;4929168;29;20044;-77
2023/07/26 16:55:29;;;;;;;2.60;1.00;;;;;;;;;;4933454;29;20040;-77
2023/07/26 16:57:55;;;;;;;4.90;1.20;;;;;;;;;;4929892;29;20047;-77
2023/07/26 17:00:21;;;;;;;2.75;0.80;;;;;;;;;;4929103;29;20568;-77
2023/07/26 17:02:47;;;;;;;5.20;1.38;;;;;;;;;;4926599;29;20122;-79
2023/07/26 17:05:13;;;;;;;2.50;0.90;;;;;;;;;;4916639;29;20854;-79
2023/07/26 17:07:40;;;;;;;4.82;1.30;;;;;;;;;;4933243;29;20059;-79
2023/07/26 17:10:07;;;;;;;2.60;0.93;;;;;;;;;;4929732;29;20040;-78
2023/07/26 17:12:33;;;;;;;4.85;1.10;;;;;;;;;;4915773;29;20062;-79
2023/07/26 17:14:59;;;;;;;5.88;1.00;;;;;;;;;;4927976;29;20036;-78
2023/07/26 17:17:25;;;;;;;3.83;1.33;;;;;;;;;;4932781;29;20483;-78
2023/07/26 17:19:51;;;;;;;3.10;1.27;;;;;;;;;;4932897;29;20398;-78
2023/07/26 17:22:17;;;;;;;6.00;1.08;;;;;;;;;;4930442;29;20059;-78
2023/07/26 17:24:43;;;;;;;3.70;1.25;;;;;;;;;;4931851;29;20103;-78
2023/07/26 17:27:09;;;;;;;4.80;1.33;;;;;;;;;;4932521;29;20126;-78
2023/07/26 17:29:35;;;;;;;4.35;1.15;;;;;;;;;;4930900;29;20399;-78
2023/07/26 17:32:01;;;;;;;5.47;1.33;;;;;;;;;;4931904;29;20047;-78
2023/07/26 17:34:27;;;;;;;7.75;1.90;;;;;;;;;;4919860;29;20433;-78
2023/07/26 17:36:53;;;;;;;6.22;1.67;;;;;;;;;;4925634;29;20143;-78
2023/07/26 17:39:22;;;;;;;6.10;1.55;;;;;;;;;;4930694;29;20044;-78
2023/07/26 17:41:48;;;;;;;5.78;1.30;;;;;;;;;;4932153;29;20402;-78
2023/07/26 17:44:15;;;;;;;6.72;1.27;;;;;;;;;;4930309;29;20135;-78
2023/07/26 17:46:41;;;;;;;4.72;1.45;;;;;;;;;;4929359;29;20043;-78
2023/07/26 17:49:07;;;;;;;4.88;1.10;;;;;;;;;;4927000;29;20028;-78
2023/07/26 17:51:33;;;;;;;4.60;1.50;;;;;;;;;;4931458;29;20472;-78
2023/07/26 17:53:59;;;;;;;3.58;1.25;;;;;;;;;;4906447;29;20036;-78
2023/07/26 17:56:25;;;;;;;3.33;1.27;;;;;;;;;;4916601;29;20536;-78
2023/07/26 17:58:51;;;;;;;7.78;1.40;;;;;;;;;;4931836;29;20039;-79
2023/07/26 18:01:17;;;;;;;4.18;1.17;;;;;;;;;;4924420;29;20036;-78
2023/07/26 18:03:43;;;;;;;4.72;1.30;;;;;;;;;;4928870;29;20107;-78
2023/07/26 18:06:09;;;;;;;7.68;1.40;;;;;;;;;;4926785;29;20792;-78
2023/07/26 18:08:37;;;;;;;6.15;1.65;;;;;;;;;;4929347;29;20040;-78
2023/07/26 18:11:03;;;;;;;8.25;1.70;;;;;;;;;;4927567;29;20503;-78
2023/07/26 18:13:29;;;;;;;6.22;1.33;;;;;;;;;;4922578;29;20139;-79
2023/07/26 18:16:06;;;;;;;5.85;1.27;;;;;;;;;;4922405;29;20044;-79
2023/07/26 18:18:32;;;;;;;6.40;1.40;;;;;;;;;;4920224;29;20084;-79
2023/07/26 18:20:59;;;;;;;4.57;1.48;;;;;;;;;;4931909;29;20044;-79
2023/07/26 18:23:25;;;;;;;4.53;1.45;;;;;;;;;;4932410;29;20060;-79
2023/07/26 18:25:51;;;;;;;7.43;1.70;;;;;;;;;;4931356;29;20391;-78
2023/07/26 18:28:17;;;;;;;5.75;1.52;;;;;;;;;;4931932;29;20112;-78
2023/07/26 18:30:43;;;;;;;6.63;1.40;;;;;;;;;;4927494;29;20147;-78
2023/07/26 18:33:09;;;;;;;4.22;1.48;;;;;;;;;;4932703;29;20047;-79
2023/07/26 18:35:35;;;;;;;6.28;1.38;;;;;;;;;;4930913;29;20740;-79
2023/07/26 18:38:01;;;;;;;5.43;1.30;;;;;;;;;;4932349;29;20048;-79
2023/07/26 18:40:27;;;;;;;3.25;1.13;;;;;;;;;;4921615;29;20040;-79
2023/07/26 18:42:53;;;;;;;5.32;1.50;;;;;;;;;;4914608;29;20043;-79
2023/07/26 18:45:19;;;;;;;6.25;1.67;;;;;;;;;;4928136;29;20074;-79
2023/07/26 18:47:45;;;;;;;5.63;1.70;;;;;;;;;;4932310;29;20048;-78
2023/07/26 18:50:11;;;;;;;4.63;1.67;;;;;;;;;;4928500;29;20044;-78
2023/07/26 18:52:37;;;;;;;3.53;1.50;;;;;;;;;;4931858;29;20882;-78
2023/07/26 18:55:03;;;;;;;6.50;1.50;;;;;;;;;;4918228;29;20067;-78
2023/07/26 18:57:29;;;;;;;2.80;1.00;;;;;;;;;;4931773;29;20055;-78
2023/07/26 18:59:55;;;;;;;8.30;1.90;;;;;;;;;;4931325;29;20147;-78
2023/07/26 19:02:21;;;;;;;5.22;1.38;;;;;;;;;;4931966;29;20486;-78
2023/07/26 19:04:47;;;;;;;2.25;1.20;;;;;;;;;;4931196;29;20119;-78
2023/07/26 19:07:13;;;;;;;3.05;1.10;;;;;;;;;;4914687;29;20044;-78
2023/07/26 19:09:40;;;;;;;4.10;1.48;;;;;;;;;;4914011;29;20039;-79
2023/07/26 19:12:06;;;;;;;4.13;1.40;;;;;;;;;;4933384;29;20040;-78
2023/07/26 19:14:32;;;;;;;5.88;1.73;;;;;;;;;;4931630;29;20123;-79
2023/07/26 19:16:58;;;;;;;4.95;1.35;;;;;;;;;;4928491;29;20127;-79
2023/07/26 19:19:24;;;;;;;4.32;1.90;;;;;;;;;;4934530;29;20548;-79
2023/07/26 19:21:50;;;;;;;5.38;2.00;;;;;;;;;;4927489;29;20079;-78
2023/07/26 19:24:16;;;;;;;3.50;1.35;;;;;;;;;;4934359;29;20542;-78
2023/07/26 19:26:42;;;;;;;3.08;1.40;;;;;;;;;;4932587;29;20123;-78
2023/07/26 19:29:08;;;;;;;5.95;1.77;;;;;;;;;;4930115;29;20036;-79
2023/07/26 19:31:34;;;;;;;5.07;1.45;;;;;;;;;;4915815;29;20131;-79
2023/07/26 19:34:00;;;;;;;4.00;1.52;;;;;;;;;;4931080;29;20043;-78
2023/07/26 19:36:26;;;;;;;4.20;1.70;;;;;;;;;;4925728;29;20035;-79
2023/07/26 19:38:52;;;;;;;5.53;1.95;;;;;;;;;;4931386;29;20618;-79
2023/07/26 19:41:18;;;;;;;4.28;1.70;;;;;;;;;;4916189;29;20038;-79
2023/07/26 19:43:45;;;;;;;4.57;1.52;;;;;;;;;;4934109;29;20055;-79
2023/07/26 19:46:11;;;;;;;6.78;1.88;;;;;;;;;;4931120;29;20514;-79
2023/07/26 19:48:42;;;;;;;5.30;1.40;;;;;;;;;;4934376;29;20055;-79
2023/07/26 19:51:08;;;;;;;4.28;1.40;;;;;;;;;;4932913;29;20047;-79
2023/07/26 19:53:35;;;;;;;7.25;1.85;;;;;;;;;;4928474;29;20056;-79
2023/07/26 19:56:02;;;;;;;5.75;1.48;;;;;;;;;;4933910;29;20047;-79
2023/07/26 19:58:28;;;;;;;5.35;1.45;;;;;;;;;;4914459;29;20044;-79
2023/07/26 20:00:55;;;;;;;4.47;1.50;;;;;;;;;;4922699;29;20051;-79
2023/07/26 20:03:21;;;;;;;5.93;1.33;;;;;;;;;;4914144;29;20044;-79